Time;durP1;ratioP1;P1;durP2;ratioP2;P2;SDS_P1;SDS_P2;PMS_P1;PMS_P2;Temp;Humidity;BMP_temperature;BMP_pressure;BME280_temperature;BME280_humidity;BME280_pressure;Samples;Min_cycle;Max_cycle;Signal;HPM_P1;HPM_P2
2023/12/02 00:00:42;;;;;;;;;29.50;22.50;;;;;13.03;31.77;100435.03;5014381;28;45299;-78
2023/12/02 00:03:07;;;;;;;;;34.25;27.75;;;;;13.02;31.87;100441.34;5013548;28;59155;-77
2023/12/02 00:05:33;;;;;;;;;35.25;29.50;;;;;12.95;32.07;100444.53;5013755;28;46229;-78
2023/12/02 00:07:59;;;;;;;;;26.75;25.75;;;;;12.75;32.13;100411.63;4996199;28;45474;-78
2023/12/02 00:10:24;;;;;;;;;26.00;20.25;;;;;12.94;31.88;100453.53;5014280;28;45448;-80
2023/12/02 00:12:49;;;;;;;;;35.50;30.75;;;;;12.93;31.67;100443.78;5011674;28;46817;-80
2023/12/02 00:15:15;;;;;;;;;29.75;27.25;;;;;12.92;31.99;100444.72;5014248;28;45436;-78
2023/12/02 00:17:40;;;;;;;;;35.00;27.75;;;;;12.72;31.66;100410.94;5014086;28;45442;-77
2023/12/02 00:20:06;;;;;;;;;24.00;24.00;;;;;12.70;31.92;100400.28;4996488;28;45664;-78
2023/12/02 00:22:31;;;;;;;;;31.00;27.25;;;;;12.95;31.65;100445.38;5017031;28;45322;-79
2023/12/02 00:24:56;;;;;;;;;26.00;22.25;;;;;12.99;31.71;100455.03;5018580;28;46108;-79
2023/12/02 00:27:22;;;;;;;;;39.25;30.75;;;;;13.00;31.52;100454.06;5029788;28;45237;-80
2023/12/02 00:29:47;;;;;;;;;30.25;29.75;;;;;12.71;31.77;100409.22;5016398;28;45445;-79
2023/12/02 05:30:06;;;;;;;;;34.75;32.25;;;;;10.68;37.23;100749.44;5053224;27;45795;-78
2023/12/02 05:32:31;;;;;;;;;37.25;34.50;;;;;10.54;37.88;100735.81;4985196;28;45285;-78
2023/12/02 05:34:56;;;;;;;;;41.50;35.75;;;;;10.69;37.55;100756.53;4996558;28;45357;-76
2023/12/02 05:37:22;;;;;;;;;48.50;39.50;;;;;10.65;37.56;100751.38;4996700;28;45636;-77
2023/12/02 05:39:47;;;;;;;;;29.25;27.25;;;;;10.63;37.36;100760.34;4996680;28;46030;-78
2023/12/02 05:42:13;;;;;;;;;43.25;35.00;;;;;10.72;37.57;100775.16;4988990;28;45441;-75
2023/12/02 05:44:40;;;;;;;;;42.75;30.75;;;;;10.62;37.63;100763.13;4996730;28;45456;-77
2023/12/02 05:47:06;;;;;;;;;43.25;37.25;;;;;10.70;37.75;100773.50;4978555;28;46314;-76
2023/12/02 05:49:32;;;;;;;;;34.50;27.50;;;;;10.63;37.85;100782.78;4996126;28;45360;-76
2023/12/02 05:51:58;;;;;;;;;46.50;39.00;;;;;10.65;37.98;100786.22;4978777;28;45409;-77
2023/12/02 05:54:23;;;;;;;;;40.00;34.50;;;;;10.68;37.87;100791.47;4978971;28;45544;-77
2023/12/02 05:56:48;;;;;;;;;45.00;38.25;;;;;10.64;37.70;100788.03;4996345;28;45368;-77
2023/12/02 05:59:15;;;;;;;;;43.00;35.75;;;;;10.44;37.83;100748.75;4978417;28;48050;-77
2023/12/02 06:01:40;;;;;;;;;44.25;36.25;;;;;10.70;38.01;100800.31;4978497;28;45441;-76
2023/12/02 06:04:06;;;;;;;;;36.25;27.50;;;;;10.76;38.04;100805.38;4996134;28;45453;-76
2023/12/02 06:06:31;;;;;;;;;49.00;35.00;;;;;10.77;37.78;100808.00;4978298;28;46802;-78
2023/12/02 06:08:57;;;;;;;;;47.75;40.75;;;;;10.68;37.70;100803.06;4996090;28;46229;-75
2023/12/02 06:11:22;;;;;;;;;46.75;37.00;;;;;10.79;37.50;100824.03;4996356;28;45325;-77
2023/12/02 06:13:47;;;;;;;;;42.50;32.50;;;;;10.71;37.68;100829.75;4996071;28;45865;-77
2023/12/02 06:16:13;;;;;;;;;45.33;37.67;;;;;10.71;38.15;100834.25;4978266;28;47164;-76
2023/12/02 06:18:38;;;;;;;;;33.50;29.00;;;;;10.61;38.29;100834.66;4995679;28;45429;-76
2023/12/02 06:21:04;;;;;;;;;46.75;37.50;;;;;10.50;38.43;100806.56;4978351;28;45726;-76
2023/12/02 06:23:29;;;;;;;;;43.33;31.67;;;;;10.60;38.08;100823.97;4996197;28;45296;-77
2023/12/02 06:25:54;;;;;;;;;42.75;38.75;;;;;10.65;38.37;100846.09;4978142;28;46125;-77
2023/12/02 06:28:23;;;;;;;;;44.50;38.75;;;;;10.65;38.09;100848.78;4978302;28;48201;-76
2023/12/02 06:30:48;;;;;;;;;49.75;38.25;;;;;10.63;38.07;100851.50;5002023;28;45373;-76
2023/12/02 06:33:14;;;;;;;;;36.25;31.75;;;;;10.68;38.19;100859.38;5016222;28;45458;-78
2023/12/02 06:35:39;;;;;;;;;31.50;29.75;;;;;10.57;38.53;100851.78;4996545;28;46207;-73
2023/12/02 06:38:05;;;;;;;;;42.67;34.33;;;;;10.40;38.31;100819.50;5015690;28;58637;-78
2023/12/02 06:40:31;;;;;;;;;39.00;34.25;;;;;10.66;38.06;100863.91;5019203;28;45381;-78
2023/12/02 06:42:56;;;;;;;;;45.33;38.33;;;;;10.63;38.21;100873.94;5023026;28;45431;-76
2023/12/02 06:45:22;;;;;;;;;40.00;36.50;;;;;10.71;38.29;100869.97;5015735;28;45466;-79
2023/12/02 06:47:47;;;;;;;;;45.67;39.33;;;;;10.67;38.31;100878.19;5014988;28;45403;-77
2023/12/02 06:50:12;;;;;;;;;47.00;40.00;;;;;10.66;38.20;100866.59;5014440;28;53167;-78
2023/12/02 06:52:38;;;;;;;;;46.50;39.00;;;;;10.65;37.83;100867.53;5015577;28;45384;-78
2023/12/02 06:55:04;;;;;;;;;44.50;41.00;;;;;10.67;37.82;100868.34;5015070;28;46415;-76
2023/12/02 06:57:29;;;;;;;;;42.00;38.00;;;;;10.72;38.18;100876.22;5015102;28;45836;-79
2023/12/02 06:59:54;;;;;;;;;52.25;41.00;;;;;10.63;37.89;100866.75;5013947;28;45453;-78
2023/12/02 07:02:20;;;;;;;;;41.00;36.75;;;;;10.72;37.73;100876.22;5014882;28;45467;-76
2023/12/02 07:04:48;;;;;;;;;41.25;36.50;;;;;10.84;38.06;100892.59;5014710;28;45359;-79
2023/12/02 07:07:13;;;;;;;;;44.67;40.67;;;;;10.73;38.09;100869.88;5015064;28;46244;-80
2023/12/02 07:09:38;;;;;;;;;42.25;37.75;;;;;10.90;37.41;100908.41;5014846;28;45612;-76
2023/12/02 07:12:04;;;;;;;;;33.25;33.25;;;;;10.94;37.82;100915.41;5015369;28;45394;-80
2023/12/02 07:14:29;;;;;;;;;45.25;35.75;;;;;10.92;37.30;100916.41;4996577;28;46898;-77
2023/12/02 07:16:55;;;;;;;;;50.00;40.67;;;;;10.96;37.38;100920.69;5015128;28;47024;-77
2023/12/02 07:19:20;;;;;;;;;61.75;43.50;;;;;10.77;37.72;100896.50;5013685;28;47281;-77
2023/12/02 07:21:45;;;;;;;;;46.67;39.67;;;;;10.94;37.27;100936.00;4997282;28;45291;-79
2023/12/02 07:24:11;;;;;;;;;43.67;33.33;;;;;10.92;37.82;100928.00;4996973;28;45781;-78
2023/12/02 07:26:36;;;;;;;;;49.25;39.50;;;;;10.85;37.69;100928.34;5014953;28;45346;-79
2023/12/02 07:29:02;;;;;;;;;44.25;37.00;;;;;10.77;37.36;100933.19;5014568;28;45611;-78
2023/12/02 07:31:27;;;;;;;;;44.00;36.33;;;;;10.63;37.54;100914.16;5014618;28;45595;-77
2023/12/02 07:33:53;;;;;;;;;47.75;35.00;;;;;10.68;37.69;100928.22;5014155;28;45380;-77
2023/12/02 07:36:18;;;;;;;;;46.50;35.00;;;;;10.80;37.52;100944.63;5014539;28;45430;-78
2023/12/02 07:38:43;;;;;;;;;44.75;36.25;;;;;10.65;37.75;100929.19;5014350;28;45371;-78
2023/12/02 07:41:09;;;;;;;;;42.00;37.75;;;;;10.76;37.43;100940.34;5023105;28;45432;-77
2023/12/02 07:43:34;;;;;;;;;61.33;45.67;;;;;10.82;37.40;100952.59;5014971;28;45527;-78
2023/12/02 07:46:00;;;;;;;;;39.00;35.50;;;;;10.76;37.38;100959.13;5014708;28;45416;-78
2023/12/02 07:48:25;;;;;;;;;41.00;37.33;;;;;10.74;37.31;100958.31;5016944;28;45207;-76
2023/12/02 07:50:50;;;;;;;;;50.75;40.25;;;;;10.48;37.92;100921.88;5018593;28;45290;-78
2023/12/02 07:53:16;;;;;;;;;37.75;35.50;;;;;10.68;37.79;100965.75;5017941;28;48045;-77
2023/12/02 07:55:41;;;;;;;;;50.00;40.00;;;;;10.63;37.83;100953.41;5018245;28;45911;-78
2023/12/02 07:58:06;;;;;;;;;53.00;42.25;;;;;10.63;38.30;100962.41;5016505;28;48406;-77
2023/12/02 08:00:32;;;;;;;;;43.75;35.00;;;;;10.59;38.01;100965.19;5000216;28;45311;-79
2023/12/02 08:02:57;;;;;;;;;45.25;37.75;;;;;10.51;38.10;100961.97;5017553;28;45367;-78
2023/12/02 08:05:23;;;;;;;;;51.50;40.25;;;;;10.34;38.00;100974.34;5017326;28;46104;-79
2023/12/02 08:07:48;;;;;;;;;42.50;40.00;;;;;10.38;38.59;100984.84;5017604;28;45338;-77
2023/12/02 08:10:13;;;;;;;;;48.33;39.33;;;;;10.30;38.50;100972.69;5017987;28;45416;-78
2023/12/02 08:12:39;;;;;;;;;52.67;41.00;;;;;10.39;38.52;100986.59;4999525;28;45508;-80
2023/12/02 08:15:05;;;;;;;;;46.67;41.00;;;;;10.30;38.23;100981.59;5018063;28;46625;-81
2023/12/02 08:17:31;;;;;;;;;48.67;39.33;;;;;10.35;38.63;100992.16;5017773;28;45334;-77
2023/12/02 08:19:56;;;;;;;;;62.33;43.00;;;;;10.38;38.48;101008.97;5018055;28;45318;-78
2023/12/02 08:22:24;;;;;;;;;47.33;39.33;;;;;10.30;38.58;100997.69;5032977;28;45488;-79
2023/12/02 08:24:50;;;;;;;;;44.33;31.33;;;;;10.30;39.17;101012.91;5018052;28;45263;-79
2023/12/02 08:27:17;;;;;;;;;45.00;38.67;;;;;10.10;38.90;101009.19;5017654;28;45294;-78
2023/12/02 08:29:42;;;;;;;;;50.67;43.00;;;;;9.88;40.01;101009.16;4999890;28;45334;-79
2023/12/02 08:32:08;;;;;;;;;49.00;39.00;;;;;9.79;39.55;101017.53;5017044;28;45435;-81
2023/12/02 08:34:33;;;;;;;;;55.33;41.67;;;;;9.67;39.77;101014.47;5017046;28;46031;-79
2023/12/02 08:36:58;;;;;;;;;51.00;42.67;;;;;9.71;39.70;101033.00;5017548;28;45412;-77
2023/12/02 08:39:24;;;;;;;;;44.33;41.33;;;;;9.67;40.27;101031.41;4999801;28;45400;-78
2023/12/02 08:41:50;;;;;;;;;57.33;39.00;;;;;9.44;40.43;101029.56;5008801;28;45667;-79
2023/12/02 08:44:15;;;;;;;;;52.33;41.67;;;;;9.48;40.33;101043.72;5017288;28;45932;-79
2023/12/02 08:46:40;;;;;;;;;50.33;39.33;;;;;9.42;40.88;101050.16;4999263;28;45288;-79
2023/12/02 08:49:05;;;;;;;;;53.00;42.67;;;;;9.35;40.77;101056.69;5017270;28;45542;-78
2023/12/02 08:51:31;;;;;;;;;51.00;41.33;;;;;9.13;41.34;101044.97;4999351;28;45413;-78
2023/12/02 08:53:59;;;;;;;;;60.33;46.33;;;;;9.18;41.61;101066.22;4999289;28;47255;-78
2023/12/02 08:56:26;;;;;;;;;65.33;48.33;;;;;9.20;40.87;101051.84;5016349;28;45440;-80
2023/12/02 08:58:52;;;;;;;;;50.67;42.00;;;;;8.94;41.57;101054.56;5016551;28;45628;-79
2023/12/02 09:01:17;;;;;;;;;58.33;47.00;;;;;8.98;41.68;101059.75;4999496;28;47433;-79
2023/12/02 09:03:42;;;;;;;;;63.33;42.00;;;;;8.92;41.52;101043.94;5017290;28;46571;-78
2023/12/02 09:06:08;;;;;;;;;48.00;38.33;;;;;9.21;41.77;101084.81;5017709;28;45327;-77
2023/12/02 09:08:34;;;;;;;;;47.67;42.67;;;;;9.23;41.44;101097.22;5017796;28;45315;-81
2023/12/02 09:10:59;;;;;;;;;56.67;42.33;;;;;9.27;41.16;101088.16;5017529;28;45469;-79
2023/12/02 09:13:27;;;;;;;;;69.33;46.00;;;;;9.26;41.20;101097.13;4999090;28;46411;-77
2023/12/02 09:15:53;;;;;;;;;60.67;44.67;;;;;9.25;40.96;101079.34;5017257;28;45331;-77
2023/12/02 09:18:33;;;;;;;;;52.33;45.33;;;;;9.09;41.75;101086.16;5017890;28;45395;-76
2023/12/02 09:20:58;;;;;;;;;58.67;44.33;;;;;8.93;41.55;101063.53;4998613;28;46432;-78
2023/12/02 09:23:24;;;;;;;;;59.67;45.00;;;;;9.07;41.57;101098.69;4999205;28;46102;-79
2023/12/02 09:25:51;;;;;;;;;66.67;46.00;;;;;9.15;41.44;101101.09;5017006;28;45389;-79
2023/12/02 09:28:18;;;;;;;;;55.00;45.33;;;;;8.98;41.78;101093.66;5017388;28;45557;-78
2023/12/02 09:30:50;;;;;;;;;66.00;44.67;;;;;9.09;41.54;101121.78;4999102;28;46173;-78
2023/12/02 09:33:16;;;;;;;;;64.33;49.00;;;;;9.08;41.82;101116.47;5016363;28;45965;-80
2023/12/02 09:35:42;;;;;;;;;56.00;41.67;;;;;9.04;41.99;101117.50;5016463;28;45682;-78
2023/12/02 09:38:08;;;;;;;;;54.00;41.00;;;;;9.21;41.64;101123.16;5016404;28;45408;-77
2023/12/02 09:40:51;;;;;;;;;58.00;44.00;;;;;9.38;40.96;101127.91;5034952;28;45434;-79
2023/12/02 09:43:38;;;;;;;;;44.33;35.33;;;;;9.36;41.50;101127.09;5019187;28;46438;-78
2023/12/02 09:46:22;;;;;;;;;50.00;42.67;;;;;9.33;41.56;101128.09;5016400;28;45245;-79
2023/12/02 09:49:02;;;;;;;;;43.67;41.67;;;;;9.34;41.41;101126.28;5016305;28;45407;-77
2023/12/02 09:51:30;;;;;;;;;59.33;47.00;;;;;9.45;41.30;101130.31;4998378;28;45279;-75
2023/12/02 09:54:12;;;;;;;;;63.00;44.00;;;;;9.49;41.07;101128.44;5016368;28;45499;-78
2023/12/02 09:56:41;;;;;;;;;43.67;38.33;;;;;9.42;40.72;101130.44;5016169;28;45412;-77
2023/12/02 09:59:42;;;;;;;;;45.67;39.33;;;;;9.45;40.87;101124.97;5016803;28;45309;-76
2023/12/02 10:02:43;;;;;;;;;60.67;42.67;;;;;9.71;40.80;101140.09;4998719;28;46666;-79
2023/12/02 10:05:11;;;;;;;;;53.67;42.33;;;;;9.79;40.51;101129.13;5016253;28;45501;-79
2023/12/02 10:08:00;;;;;;;;;60.67;46.00;;;;;9.95;40.14;101143.72;4999750;28;45440;-77
2023/12/02 10:10:32;;;;;;;;;66.67;49.33;;;;;9.75;40.22;101119.47;5036367;28;44831;-78
2023/12/02 10:13:29;;;;;;;;;56.33;43.67;;;;;9.97;39.82;101139.16;5036837;28;44838;-77
2023/12/02 10:15:59;;;;;;;;;58.33;45.67;;;;;9.79;39.95;101140.69;5028097;28;45305;-76
2023/12/02 10:18:32;;;;;;;;;42.00;38.33;;;;;9.75;39.84;101157.81;4997463;28;45387;-78
2023/12/02 10:21:02;;;;;;;;;32.67;32.67;;;;;9.77;39.64;101141.72;5015221;28;45420;-78
2023/12/02 10:23:48;;;;;;;;;47.00;42.67;;;;;9.94;40.02;101147.31;5015988;28;45579;-77
2023/12/02 10:26:28;;;;;;;;;51.00;44.00;;;;;10.11;39.56;101141.34;4998089;28;47208;-78
2023/12/02 10:29:13;;;;;;;;;55.67;43.00;;;;;10.33;39.28;101150.31;5015492;28;45408;-78
2023/12/02 10:31:49;;;;;;;;;61.33;44.33;;;;;10.12;39.24;101110.94;5008918;28;45325;-78
2023/12/02 10:34:20;;;;;;;;;47.00;38.67;;;;;10.31;38.96;101156.66;5015365;28;45270;-78
2023/12/02 10:36:50;;;;;;;;;48.00;41.33;;;;;10.42;39.01;101158.00;5015448;28;46277;-77
2023/12/02 10:39:27;;;;;;;;;52.00;42.00;;;;;10.50;38.82;101142.50;4997977;28;45502;-78
2023/12/02 10:42:02;;;;;;;;;47.67;43.00;;;;;10.73;38.17;101143.38;5008560;28;45266;-77
2023/12/02 10:44:30;;;;;;;;;63.67;46.00;;;;;10.93;38.34;101146.16;5015040;28;45234;-78
2023/12/02 10:46:58;;;;;;;;;57.00;42.33;;;;;10.93;37.99;101146.16;4997246;28;48217;-79
2023/12/02 10:49:24;;;;;;;;;60.33;44.33;;;;;11.03;38.13;101157.38;5015169;28;45238;-78
2023/12/02 10:51:53;;;;;;;;;56.67;41.00;;;;;10.89;37.90;101139.16;5015504;28;45459;-78
2023/12/02 10:54:23;;;;;;;;;46.33;40.67;;;;;10.88;38.27;101122.22;5015053;28;45801;-77
2023/12/02 10:56:50;;;;;;;;;55.67;45.33;;;;;11.12;37.88;101154.31;5002452;28;46995;-78
2023/12/02 10:59:21;;;;;;;;;51.00;43.33;;;;;11.23;37.28;101152.03;5017147;28;45290;-78
2023/12/02 11:02:04;;;;;;;;;49.00;42.33;;;;;11.36;37.19;101158.66;5030739;28;45325;-77
2023/12/02 11:04:38;;;;;;;;;60.67;46.00;;;;;11.65;37.29;101146.66;4996625;28;45531;-77
2023/12/02 11:07:07;;;;;;;;;45.33;31.67;;;;;12.51;36.12;101136.44;5015174;28;45512;-77
2023/12/02 11:09:57;;;;;;;;;52.00;41.00;;;;;13.96;33.71;101144.31;5014493;28;45380;-76
2023/12/02 11:12:50;;;;;;;;;51.75;45.50;;;;;15.12;31.31;101143.25;5013065;28;45380;-76
2023/12/02 11:15:21;;;;;;;;;40.50;36.25;;;;;15.93;30.26;101143.78;4994479;28;47175;-77
2023/12/02 11:18:03;;;;;;;;;50.50;40.75;;;;;16.11;30.09;101140.81;5031071;28;46843;-77
2023/12/02 11:20:40;;;;;;;;;53.50;39.25;;;;;15.86;29.58;101146.00;4996857;28;45478;-77
2023/12/02 11:23:47;;;;;;;;;55.25;41.50;;;;;15.31;30.27;101141.19;5015675;28;45376;-75
2023/12/02 11:26:38;;;;;;;;;51.00;39.25;;;;;15.35;30.94;101145.47;4974354;28;45551;-75
2023/12/02 11:29:22;;;;;;;;;51.00;41.25;;;;;15.07;30.68;101148.03;4995851;28;47075;-78
2023/12/02 11:31:54;;;;;;;;;44.50;39.50;;;;;14.94;30.65;101147.00;5009579;28;45444;-79
2023/12/02 11:34:45;;;;;;;;;54.50;44.25;;;;;14.65;31.30;101164.84;5014813;28;45500;-78
2023/12/02 11:38:01;;;;;;;;;47.00;36.75;;;;;14.22;31.71;101171.69;5014895;28;45510;-79
2023/12/02 11:40:56;;;;;;;;;44.75;37.25;;;;;13.74;31.91;101134.75;4917421;28;48512;-78
2023/12/02 11:43:56;;;;;;;;;42.75;39.50;;;;;13.57;32.60;101162.59;5015140;28;45489;-80
2023/12/02 11:46:25;;;;;;;;;41.00;37.00;;;;;13.38;32.29;101138.41;5014908;28;45433;-77
2023/12/02 11:49:21;;;;;;;;;42.25;36.25;;;;;13.35;32.62;101176.28;4996507;28;46169;-77
2023/12/02 11:52:01;;;;;;;;;47.25;35.50;;;;;13.22;32.97;101159.88;5014471;28;46232;-76
2023/12/02 11:55:07;;;;;;;;;44.25;39.00;;;;;13.25;32.60;101178.56;4996655;28;45334;-76
2023/12/02 11:58:03;;;;;;;;;48.50;40.50;;;;;12.89;32.75;101167.75;5014490;28;45368;-76
2023/12/02 12:00:40;;;;;;;;;49.50;38.50;;;;;12.84;33.12;101163.56;5014624;28;45341;-76
2023/12/02 12:03:22;;;;;;;;;43.25;36.50;;;;;12.76;33.22;101155.81;4996416;28;46203;-77
2023/12/02 12:06:09;;;;;;;;;38.75;31.50;;;;;12.60;33.28;101170.09;5014513;28;45270;-76
2023/12/02 12:08:49;;;;;;;;;42.25;36.25;;;;;12.45;34.03;101182.44;5014652;28;45329;-76
2023/12/02 12:11:17;;;;;;;;;39.25;36.50;;;;;12.55;34.01;101178.38;5014690;28;45183;-76
2023/12/02 12:13:46;;;;;;;;;38.25;35.00;;;;;12.58;33.04;101175.56;5014900;28;45249;-77
2023/12/02 12:16:12;;;;;;;;;32.50;32.50;;;;;12.46;33.07;101143.84;4996596;28;45376;-76
2023/12/02 12:18:37;;;;;;;;;49.25;36.75;;;;;12.35;33.38;101148.84;5013583;28;45320;-75
2023/12/02 12:21:03;;;;;;;;;36.75;30.75;;;;;12.27;33.10;101148.34;5012813;28;45626;-76
2023/12/02 12:23:31;;;;;;;;;36.25;33.00;;;;;12.01;33.60;101153.09;4994692;28;46066;-77
2023/12/02 12:25:58;;;;;;;;;28.75;27.00;;;;;12.07;33.30;101168.09;5014220;28;45357;-75
2023/12/02 12:28:25;;;;;;;;;32.00;29.25;;;;;12.21;33.04;101188.97;5013699;28;45482;-77
2023/12/02 12:30:50;;;;;;;;;38.50;29.25;;;;;12.29;32.14;101194.84;5013401;28;45480;-76
2023/12/02 12:33:22;;;;;;;;;31.00;25.25;;;;;12.39;32.49;101204.25;4994373;28;46951;-76
2023/12/02 12:35:48;;;;;;;;;29.75;26.50;;;;;12.47;32.22;101202.09;5013930;28;45437;-76
2023/12/02 12:38:15;;;;;;;;;11.00;7.50;;;;;12.48;32.59;101193.06;4998961;28;45501;-77
2023/12/02 12:40:41;;;;;;;;;38.75;25.75;;;;;12.33;32.31;101161.53;5020873;28;45476;-75
2023/12/02 12:43:17;;;;;;;;;28.50;23.50;;;;;12.54;32.25;101194.59;5016906;28;46266;-76
2023/12/02 12:45:43;;;;;;;;;19.00;17.75;;;;;12.65;31.72;101186.91;5017657;28;45464;-76
2023/12/02 12:48:10;;;;;;;;;22.75;16.50;;;;;12.58;31.83;101166.63;5015472;28;45369;-76
2023/12/02 12:50:37;;;;;;;;;20.75;19.50;;;;;12.65;31.30;101163.56;5015983;28;45380;-76
2023/12/02 12:53:12;;;;;;;;;17.50;12.00;;;;;12.72;30.80;101191.03;5016456;28;46108;-76
2023/12/02 12:55:45;;;;;;;;;24.50;20.75;;;;;12.86;31.22;101189.41;5016619;28;45354;-79
2023/12/02 12:58:15;;;;;;;;;18.50;18.50;;;;;13.03;30.95;101201.19;5016727;28;45358;-76
2023/12/02 13:00:44;;;;;;;;;23.00;17.25;;;;;13.09;31.52;101193.72;4999427;28;46293;-75
2023/12/02 13:03:28;;;;;;;;;24.50;20.25;;;;;13.05;30.89;101213.63;5016332;28;45320;-76
2023/12/02 13:06:05;;;;;;;;;23.00;19.75;;;;;12.88;30.63;101198.31;5016421;28;45330;-76
2023/12/02 13:08:38;;;;;;;;;30.50;24.25;;;;;12.93;30.60;101181.91;4998768;28;45398;-77
2023/12/02 13:11:06;;;;;;;;;19.00;16.00;;;;;13.12;29.99;101209.69;5015748;28;45321;-76
2023/12/02 13:13:32;;;;;;;;;19.50;17.50;;;;;13.26;30.16;101217.16;5015439;28;46131;-77
2023/12/02 13:16:02;;;;;;;;;15.25;15.25;;;;;13.27;30.31;101210.78;4998690;28;45335;-76
2023/12/02 13:18:29;;;;;;;;;21.50;17.50;;;;;13.29;29.99;101198.13;4997574;28;45443;-78
2023/12/02 13:20:54;;;;;;;;;20.00;17.00;;;;;13.44;30.34;101226.13;5017225;28;45325;-77
2023/12/02 13:23:23;;;;;;;;;18.00;15.00;;;;;13.43;29.78;101227.94;4999042;28;48444;-76
2023/12/02 13:25:51;;;;;;;;;20.50;15.00;;;;;13.42;29.36;101228.91;5016626;28;45716;-77
2023/12/02 13:28:26;;;;;;;;;19.50;17.00;;;;;13.04;29.73;101198.44;5017115;28;45388;-77
2023/12/02 13:30:54;;;;;;;;;23.50;19.25;;;;;13.01;30.17;101209.38;4997213;28;46284;-82
2023/12/02 13:33:53;;;;;;;;;22.50;19.75;;;;;13.32;30.11;101234.81;5014517;28;45483;-79
2023/12/02 13:36:26;;;;;;;;;23.25;17.00;;;;;13.27;29.83;101212.63;5015378;28;45424;-79
2023/12/02 13:39:16;;;;;;;;;19.25;16.50;;;;;13.53;30.17;101231.03;4998140;28;45369;-78
2023/12/02 13:41:48;;;;;;;;;16.25;14.75;;;;;13.51;28.96;101232.94;5025858;28;45366;-76
2023/12/02 13:44:16;;;;;;;;;12.00;11.00;;;;;13.38;29.19;101221.91;5015489;28;45398;-77
2023/12/02 13:47:22;;;;;;;;;21.75;17.00;;;;;13.46;29.75;101235.84;4997968;28;45455;-77
2023/12/02 13:49:54;;;;;;;;;16.00;15.00;;;;;13.34;29.17;101244.56;5016153;28;45463;-77
2023/12/02 13:52:41;;;;;;;;;16.75;15.25;;;;;13.32;29.63;101221.34;4998376;28;45741;-77
2023/12/02 13:55:44;;;;;;;;;16.00;16.00;;;;;13.55;29.80;101243.47;5015906;28;45357;-78
2023/12/02 13:58:20;;;;;;;;;15.00;12.00;;;;;13.57;29.38;101240.72;5015955;28;45486;-80
2023/12/02 14:01:31;;;;;;;;;12.00;11.25;;;;;13.48;28.88;101242.03;5016254;28;45373;-77
2023/12/02 14:04:13;;;;;;;;;11.75;11.00;;;;;13.34;28.93;101244.56;4957843;28;46336;-78
2023/12/02 14:07:07;;;;;;;;;11.00;11.00;;;;;13.53;29.73;101250.75;4974516;28;45410;-78
2023/12/02 14:09:39;;;;;;;;;12.75;10.00;;;;;13.86;28.30;101258.09;5007964;28;45376;-77
2023/12/02 14:12:42;;;;;;;;;12.25;12.25;;;;;14.10;28.41;101264.03;4998318;28;45455;-78
2023/12/02 14:15:19;;;;;;;;;12.25;11.50;;;;;14.73;28.94;101262.44;5015918;28;45502;-77
2023/12/02 14:18:20;;;;;;;;;13.00;10.50;;;;;15.22;28.12;101266.00;5016262;28;45493;-76
2023/12/02 14:21:23;;;;;;;;;17.25;11.00;;;;;15.54;27.35;101257.91;5015867;28;45357;-78
2023/12/02 14:23:54;;;;;;;;;14.75;13.25;;;;;15.84;27.27;101256.94;4998547;28;45408;-79
2023/12/02 14:26:38;;;;;;;;;13.50;11.00;;;;;16.13;26.97;101266.03;5016595;28;45341;-79
2023/12/02 14:29:16;;;;;;;;;14.25;12.00;;;;;16.27;26.84;101259.75;5016325;28;46409;-78
2023/12/02 14:32:17;;;;;;;;;12.00;12.00;;;;;16.50;26.16;101267.31;4992084;28;45429;-77
2023/12/02 14:35:15;;;;;;;;;12.00;11.25;;;;;16.70;26.16;101262.53;4999371;28;45472;-78
2023/12/02 14:38:18;;;;;;;;;16.50;14.00;;;;;16.85;26.14;101272.41;4975569;28;45435;-77
2023/12/02 14:41:11;;;;;;;;;16.50;12.00;;;;;17.01;25.84;101275.91;5021680;28;45339;-77
2023/12/02 14:44:06;;;;;;;;;15.00;14.00;;;;;17.08;25.76;101276.38;5018004;28;45468;-77
2023/12/02 14:46:31;;;;;;;;;16.25;15.50;;;;;16.91;25.62;101277.44;4999142;28;45323;-76
2023/12/02 14:48:58;;;;;;;;;14.75;14.75;;;;;16.49;25.96;101273.72;5016689;28;45672;-77
2023/12/02 14:51:24;;;;;;;;;19.75;15.00;;;;;16.21;25.96;101279.97;4998049;28;47666;-79
2023/12/02 14:53:53;;;;;;;;;16.25;13.25;;;;;15.98;26.79;101264.25;4999093;28;45344;-78
2023/12/02 14:56:27;;;;;;;;;14.75;13.25;;;;;16.06;26.40;101307.94;4997899;28;45337;-77
2023/12/02 14:58:59;;;;;;;;;15.75;13.50;;;;;15.85;26.86;101315.47;5016893;28;45534;-76
2023/12/02 15:01:33;;;;;;;;;14.75;14.25;;;;;15.40;27.26;101318.97;5021828;28;45419;-77
2023/12/02 15:03:59;;;;;;;;;14.25;14.25;;;;;15.25;27.96;101325.22;5026266;28;45250;-78
2023/12/02 15:06:26;;;;;;;;;16.75;14.50;;;;;15.14;27.82;101333.09;5026168;28;45525;-79
2023/12/02 15:08:52;;;;;;;;;13.75;13.25;;;;;14.83;28.09;101322.19;5022580;28;45292;-77
2023/12/02 15:11:20;;;;;;;;;15.50;14.25;;;;;14.50;28.25;101298.78;5017790;28;46373;-77
2023/12/02 15:13:49;;;;;;;;;16.50;13.50;;;;;14.69;28.84;101336.44;5017129;28;45351;-76
2023/12/02 15:16:15;;;;;;;;;15.50;14.50;;;;;14.63;28.80;101324.13;4998499;28;45459;-76
2023/12/02 15:18:40;;;;;;;;;16.25;13.75;;;;;14.77;28.88;101345.88;5015889;28;45314;-76
2023/12/02 15:21:07;;;;;;;;;16.50;16.50;;;;;14.68;28.57;101348.19;5016950;28;45903;-77
2023/12/02 15:23:35;;;;;;;;;14.50;12.50;;;;;14.23;28.74;101344.22;5015962;28;45328;-77
2023/12/02 15:26:00;;;;;;;;;11.00;10.25;;;;;14.06;29.21;101346.91;5015628;28;45493;-78
2023/12/02 15:28:26;;;;;;;;;19.75;16.00;;;;;13.98;29.57;101370.69;5015795;28;45264;-76
2023/12/02 15:31:17;;;;;;;;;16.00;14.00;;;;;13.84;29.63;101367.81;4997845;28;47456;-78
2023/12/02 15:33:51;;;;;;;;;14.50;11.00;;;;;13.41;29.79;101344.78;5015538;28;45341;-78
2023/12/02 15:36:17;;;;;;;;;11.75;11.75;;;;;13.41;29.80;101353.72;5016052;28;45337;-76
2023/12/02 15:38:43;;;;;;;;;18.75;14.25;;;;;13.49;30.08;101373.09;5015090;28;45423;-77
2023/12/02 15:41:12;;;;;;;;;17.50;15.50;;;;;13.40;30.64;101362.75;5024049;28;45391;-77
2023/12/02 15:43:38;;;;;;;;;12.25;12.25;;;;;13.43;30.12;101381.47;5016911;28;45433;-77
2023/12/02 15:46:04;;;;;;;;;16.50;13.25;;;;;13.37;30.48;101375.47;5015753;28;45308;-77
2023/12/02 15:48:30;;;;;;;;;13.50;13.50;;;;;13.33;30.25;101403.50;5014730;28;45333;-78
2023/12/02 15:50:55;;;;;;;;;14.75;10.25;;;;;13.24;30.43;101413.78;5015071;28;45426;-77
2023/12/02 15:53:22;;;;;;;;;7.50;7.50;;;;;13.21;30.59;101413.03;5014537;28;45490;-78
2023/12/02 15:55:48;;;;;;;;;16.75;12.00;;;;;13.22;31.01;101410.28;4997346;28;45357;-77
2023/12/02 15:58:13;;;;;;;;;17.00;17.00;;;;;13.28;30.90;101414.47;5014504;28;45270;-79
2023/12/02 16:00:40;;;;;;;;;15.75;15.00;;;;;13.28;31.05;101411.78;5015154;28;45365;-77
2023/12/02 16:03:07;;;;;;;;;13.25;13.00;;;;;13.34;31.17;101407.97;5014989;28;45217;-77
2023/12/02 16:05:32;;;;;;;;;18.75;11.25;;;;;13.40;30.91;101415.75;5015093;28;45274;-77
2023/12/02 16:08:00;;;;;;;;;24.25;18.25;;;;;13.34;31.05;101397.19;5015414;28;45516;-77
2023/12/02 16:10:27;;;;;;;;;19.00;16.75;;;;;13.33;31.32;101428.63;5018570;28;46317;-78
2023/12/02 16:12:53;;;;;;;;;20.25;17.25;;;;;13.17;31.47;101408.75;5018095;28;45359;-77
2023/12/02 16:15:26;;;;;;;;;18.25;18.25;;;;;13.24;31.61;101426.34;5018436;28;45355;-77
2023/12/02 16:17:51;;;;;;;;;21.75;17.50;;;;;13.14;31.63;101436.66;5018246;28;45333;-78
2023/12/02 16:20:20;;;;;;;;;23.00;18.50;;;;;13.07;31.63;101445.06;5018156;28;46348;-77
2023/12/02 16:22:46;;;;;;;;;23.00;17.50;;;;;12.90;32.28;101443.13;5017521;28;45284;-77
2023/12/02 16:25:11;;;;;;;;;15.75;15.75;;;;;12.68;32.59;101439.59;4999900;28;45357;-78
2023/12/02 16:27:37;;;;;;;;;18.00;16.00;;;;;12.79;32.54;101440.03;4999644;28;46953;-78
2023/12/02 16:30:03;;;;;;;;;27.00;17.75;;;;;12.92;32.45;101454.72;5017155;28;45335;-80